createdAt,value
2019-02-21T00:01:35.629Z,93.30
2019-02-21T00:05:37.508Z,93.20
2019-02-21T00:09:39.401Z,93.00
2019-02-21T00:13:41.284Z,93.00
2019-02-21T00:17:43.200Z,92.90
2019-02-21T00:21:45.081Z,92.70
2019-02-21T00:25:46.969Z,92.70
2019-02-21T00:29:49.131Z,92.80
2019-02-21T00:33:51.010Z,92.70
2019-02-21T00:37:52.954Z,92.60
2019-02-21T00:41:54.790Z,93.10
2019-02-21T00:45:56.682Z,92.60
2019-02-21T00:49:58.586Z,92.80
2019-02-21T00:54:00.477Z,92.50
2019-02-21T00:58:02.365Z,92.90
2019-02-21T01:02:04.372Z,92.80
2019-02-21T01:06:06.428Z,92.90
2019-02-21T01:10:09.360Z,92.70
2019-02-21T01:14:12.226Z,92.90
2019-02-21T01:18:14.103Z,93.30
2019-02-21T01:22:17.119Z,93.50
2019-02-21T01:26:19.076Z,93.90
2019-02-21T01:30:21.016Z,93.30
2019-02-21T01:34:23.032Z,93.30
2019-02-21T01:38:25.681Z,93.10
2019-02-21T01:42:27.573Z,93.20
2019-02-21T01:46:29.466Z,92.90
2019-02-21T01:50:31.707Z,93.00
2019-02-21T01:54:33.746Z,92.90
2019-02-21T01:58:53.999Z,92.90
2019-02-21T02:02:55.911Z,93.40
2019-02-21T02:06:57.828Z,93.10
2019-02-21T02:10:59.749Z,93.30
2019-02-21T02:15:04.020Z,93.60
2019-02-21T02:19:06.078Z,93.80
2019-02-21T02:23:08.964Z,93.80
2019-02-21T02:27:10.859Z,93.60
2019-02-21T02:31:22.060Z,93.50
2019-02-21T02:35:16.422Z,93.50
2019-02-21T02:39:18.483Z,93.40
2019-02-21T02:43:20.360Z,93.40
2019-02-21T02:47:22.261Z,93.40
2019-02-21T02:51:25.397Z,93.40
2019-02-21T02:55:27.306Z,93.10
2019-02-21T02:59:40.319Z,93.00
2019-02-21T03:03:32.821Z,93.30
2019-02-21T03:07:34.745Z,93.80
2019-02-21T03:11:36.653Z,93.80
2019-02-21T03:15:39.559Z,93.60
2019-02-21T03:19:41.464Z,93.50
2019-02-21T03:23:43.372Z,93.80
2019-02-21T03:27:45.371Z,93.50
2019-02-21T03:31:54.598Z,93.90
2019-02-21T03:35:50.951Z,93.80
2019-02-21T03:39:52.843Z,93.70
2019-02-21T03:43:54.783Z,94.00
2019-02-21T03:47:56.677Z,93.80
2019-02-21T03:51:58.643Z,93.60
2019-02-21T03:56:00.520Z,93.70
2019-02-21T04:00:02.557Z,93.80
2019-02-21T04:04:05.845Z,93.70
2019-02-21T04:08:07.792Z,93.70
2019-02-21T04:12:09.669Z,93.60
2019-02-21T04:16:11.575Z,93.30
2019-02-21T04:20:13.564Z,93.90
2019-02-21T04:24:15.469Z,93.30
2019-02-21T04:28:17.407Z,93.30
2019-02-21T04:32:19.456Z,93.30
2019-02-21T04:36:23.456Z,93.70
2019-02-21T04:40:26.595Z,93.90
2019-02-21T04:44:28.501Z,94.10
2019-02-21T04:48:30.413Z,94.70
2019-02-21T04:52:32.338Z,94.20
2019-02-21T04:56:34.254Z,94.20
2019-02-21T05:00:36.227Z,94.10
2019-02-21T05:04:38.142Z,93.80
2019-02-21T05:08:40.055Z,94.00
2019-02-21T05:12:41.969Z,94.10
2019-02-21T05:16:44.690Z,94.10
2019-02-21T05:20:46.661Z,94.80
2019-02-21T05:24:48.587Z,95.00
2019-02-21T05:28:50.505Z,95.20
2019-02-21T05:32:59.826Z,95.10
2019-02-21T05:37:06.465Z,95.30
2019-02-21T05:41:10.001Z,95.40
2019-02-21T05:45:25.597Z,95.30
2019-02-21T05:49:35.340Z,95.20
2019-02-21T05:53:38.892Z,95.20
2019-02-21T05:57:48.507Z,95.40
2019-02-21T06:01:57.809Z,95.30
2019-02-21T06:06:10.125Z,95.30
2019-02-21T06:10:17.259Z,95.10
2019-02-21T06:14:32.885Z,94.60
2019-02-21T06:18:43.519Z,94.50
2019-02-21T06:23:05.147Z,94.70
2019-02-21T06:27:08.686Z,94.80
2019-02-21T06:31:10.915Z,94.70
2019-02-21T06:35:12.996Z,94.70
2019-02-21T06:39:14.919Z,94.60
2019-02-21T06:43:16.959Z,94.50
2019-02-21T06:47:18.848Z,94.60
2019-02-21T06:51:20.767Z,94.70
2019-02-21T06:55:22.686Z,94.70
2019-02-21T06:59:25.869Z,94.60
2019-02-21T07:03:29.071Z,95.20
2019-02-21T07:07:31.010Z,94.90
2019-02-21T07:11:32.930Z,95.10
2019-02-21T07:15:34.849Z,95.30
2019-02-21T07:19:36.766Z,95.20
2019-02-21T07:23:43.466Z,95.20
2019-02-21T07:27:42.337Z,95.30
2019-02-21T07:31:44.298Z,95.40
2019-02-21T07:35:46.203Z,95.50
2019-02-21T07:39:50.767Z,95.40
2019-02-21T07:43:52.022Z,95.40
2019-02-21T07:47:54.059Z,95.40
2019-02-21T07:51:55.968Z,95.40
2019-02-21T07:55:57.872Z,95.40
2019-02-21T07:59:59.815Z,95.40
2019-02-21T08:04:01.707Z,95.40
2019-02-21T08:08:03.618Z,95.40
2019-02-21T08:12:06.505Z,95.40
2019-02-21T08:16:08.406Z,95.40
2019-02-21T08:20:12.715Z,95.30
2019-02-21T08:24:14.660Z,95.30
2019-02-21T08:28:16.548Z,95.30
2019-02-21T08:32:20.087Z,95.50
2019-02-21T08:36:22.002Z,95.30
2019-02-21T08:40:25.129Z,95.30
2019-02-21T08:44:28.922Z,95.00
2019-02-21T08:48:30.682Z,95.20
2019-02-21T08:52:32.578Z,94.90
2019-02-21T08:56:34.481Z,94.80
2019-02-21T09:00:36.584Z,94.50
2019-02-21T09:04:38.500Z,94.30
2019-02-21T09:08:40.392Z,94.40
2019-02-21T09:12:47.134Z,94.20
2019-02-21T09:16:46.072Z,94.70
2019-02-21T09:20:47.983Z,94.60
2019-02-21T09:24:49.917Z,94.30
2019-02-21T09:28:51.805Z,94.20
2019-02-21T09:32:53.717Z,94.00
2019-02-21T09:36:55.623Z,93.50
2019-02-21T09:40:57.527Z,92.90
2019-02-21T09:44:59.427Z,92.60
2019-02-21T09:49:03.022Z,92.30
2019-02-21T09:53:06.153Z,90.60
2019-02-21T09:57:13.329Z,87.40
2019-02-21T10:01:11.687Z,84.50
2019-02-21T10:05:13.778Z,84.60
2019-02-21T10:09:16.632Z,83.90
2019-02-21T10:13:18.556Z,82.70
2019-02-21T10:17:20.462Z,81.30
2019-02-21T10:21:22.471Z,79.70
2019-02-21T10:25:30.356Z,78.60
2019-02-21T10:29:32.240Z,77.20
2019-02-21T10:33:34.157Z,75.00
2019-02-21T10:37:36.050Z,70.80
2019-02-21T10:41:37.983Z,71.00
2019-02-21T10:45:47.420Z,70.00
2019-02-21T10:49:43.512Z,70.40
2019-02-21T10:53:45.433Z,70.10
2019-02-21T10:57:47.792Z,69.90
2019-02-21T11:01:49.696Z,71.20
2019-02-21T11:05:51.601Z,71.20
2019-02-21T11:09:53.496Z,71.50
2019-02-21T11:13:55.413Z,71.80
2019-02-21T11:17:57.352Z,71.00
2019-02-21T11:21:59.261Z,70.60
2019-02-21T11:26:01.739Z,68.30
2019-02-21T11:30:05.095Z,66.70
2019-02-21T11:34:07.012Z,67.20
2019-02-21T11:38:08.969Z,67.40
2019-02-21T11:42:10.883Z,65.80
2019-02-21T11:46:12.771Z,64.70
2019-02-21T11:50:17.299Z,63.30
2019-02-21T11:54:26.483Z,64.00
2019-02-21T11:58:22.856Z,63.90
2019-02-21T12:02:26.029Z,66.00
2019-02-21T12:06:27.959Z,64.60
2019-02-21T12:10:29.875Z,65.00
2019-02-21T12:14:31.794Z,64.30
2019-02-21T12:18:33.726Z,64.10
2019-02-21T12:22:35.694Z,65.40
2019-02-21T12:26:37.546Z,65.50
2019-02-21T12:30:39.465Z,64.10
2019-02-21T12:34:41.394Z,63.90
2019-02-21T12:38:43.344Z,65.80
2019-02-21T12:42:45.273Z,65.50
2019-02-21T12:46:47.243Z,64.60
2019-02-21T12:50:49.140Z,62.50
2019-02-21T12:54:51.856Z,59.20
2019-02-21T12:58:54.822Z,58.20
2019-02-21T13:02:56.754Z,59.80
2019-02-21T13:06:58.670Z,59.50
2019-02-21T13:11:00.595Z,60.20
2019-02-21T13:15:02.517Z,62.20
2019-02-21T13:19:04.501Z,61.40
2019-02-21T13:23:06.427Z,61.30
2019-02-21T13:27:08.329Z,62.20
2019-02-21T13:31:10.247Z,63.50
2019-02-21T13:35:15.341Z,63.00
2019-02-21T13:39:17.243Z,62.20
2019-02-21T13:43:23.791Z,62.90
2019-02-21T13:47:26.276Z,62.50
2019-02-21T13:51:28.199Z,61.70
2019-02-21T13:55:30.116Z,61.30
2019-02-21T13:59:34.783Z,61.50
2019-02-21T14:03:35.708Z,61.00
2019-02-21T14:07:37.604Z,61.50
2019-02-21T14:11:39.569Z,61.40
2019-02-21T14:15:41.563Z,62.10
2019-02-21T14:19:44.451Z,62.10
2019-02-21T14:23:47.351Z,61.80
2019-02-21T14:27:49.269Z,62.50
2019-02-21T14:31:51.220Z,62.50
2019-02-21T14:35:53.111Z,61.90
2019-02-21T14:39:55.051Z,61.40
2019-02-21T14:43:56.942Z,60.40
2019-02-21T14:47:58.852Z,60.10
2019-02-21T14:52:02.011Z,60.10
2019-02-21T14:56:04.088Z,60.90
2019-02-21T15:00:16.116Z,60.50
2019-02-21T15:04:18.269Z,61.00
2019-02-21T15:08:22.205Z,61.60
2019-02-21T15:12:24.141Z,62.50
2019-02-21T15:16:26.336Z,62.60
2019-02-21T15:20:36.369Z,62.10
2019-02-21T15:24:31.852Z,62.50
2019-02-21T15:28:33.759Z,62.70
2019-02-21T15:32:35.659Z,62.90
2019-02-21T15:36:38.499Z,63.70
2019-02-21T15:40:43.410Z,65.10
2019-02-21T15:44:45.253Z,65.60
2019-02-21T15:48:47.157Z,65.80
2019-02-21T15:52:49.539Z,65.90
2019-02-21T15:56:51.527Z,66.30
2019-02-21T16:00:53.448Z,66.40
2019-02-21T16:04:55.346Z,67.20
2019-02-21T16:08:57.260Z,68.00
2019-02-21T16:12:59.540Z,69.30
2019-02-21T16:17:01.760Z,69.30
2019-02-21T16:21:03.646Z,69.40
2019-02-21T16:25:12.693Z,69.00
2019-02-21T16:29:14.706Z,69.50
2019-02-21T16:33:16.614Z,69.60
2019-02-21T16:37:18.502Z,69.70
2019-02-21T16:41:20.425Z,70.50
2019-02-21T16:45:23.428Z,70.60
2019-02-21T16:49:26.298Z,71.20
2019-02-21T16:53:28.290Z,71.70
2019-02-21T16:57:30.195Z,71.80
2019-02-21T17:01:32.084Z,72.90
2019-02-21T17:05:34.237Z,73.50
2019-02-21T17:09:36.145Z,74.00
2019-02-21T17:13:39.143Z,74.10
2019-02-21T17:17:41.035Z,74.80
2019-02-21T17:21:42.937Z,75.20
2019-02-21T17:25:44.833Z,75.90
2019-02-21T17:29:46.745Z,75.50
2019-02-21T17:33:48.646Z,76.30
2019-02-21T17:37:50.548Z,76.80
2019-02-21T17:41:52.519Z,77.60
2019-02-21T17:45:54.465Z,77.80
2019-02-21T17:49:56.370Z,78.30
2019-02-21T17:53:58.331Z,78.50
2019-02-21T17:58:00.236Z,78.90
2019-02-21T18:02:02.251Z,79.50
2019-02-21T18:06:04.163Z,80.80
2019-02-21T18:10:13.546Z,81.00
2019-02-21T18:14:15.448Z,81.40
2019-02-21T18:18:17.464Z,81.70
2019-02-21T18:22:19.411Z,81.70
2019-02-21T18:26:21.323Z,81.20
2019-02-21T18:30:23.895Z,80.80
2019-02-21T18:34:26.402Z,80.80
2019-02-21T18:38:28.456Z,79.90
2019-02-21T18:42:30.369Z,79.40
2019-02-21T18:46:32.272Z,79.20
2019-02-21T18:50:38.267Z,79.00
2019-02-21T18:54:37.775Z,78.60
2019-02-21T18:58:39.695Z,78.70
2019-02-21T19:02:42.567Z,78.60
2019-02-21T19:06:44.466Z,78.90
2019-02-21T19:10:46.378Z,78.80
2019-02-21T19:14:48.292Z,79.10
2019-02-21T19:18:50.199Z,79.40
2019-02-21T19:22:52.104Z,79.60
2019-02-21T19:26:53.991Z,79.90
2019-02-21T19:31:06.104Z,81.20
2019-02-21T19:35:09.564Z,80.70
2019-02-21T19:39:12.503Z,80.60
2019-02-21T19:43:14.433Z,81.30
2019-02-21T19:47:16.311Z,81.60
2019-02-21T19:51:18.212Z,82.20
2019-02-21T19:55:20.125Z,83.30
2019-02-21T19:59:22.040Z,83.10
2019-02-21T20:03:24.091Z,83.20
2019-02-21T20:07:26.525Z,83.40
2019-02-21T20:11:29.305Z,84.00
2019-02-21T20:15:31.317Z,84.10
2019-02-21T20:19:33.280Z,84.40
2019-02-21T20:23:35.179Z,85.30
2019-02-21T20:27:37.086Z,85.20
2019-02-21T20:31:38.991Z,84.80
2019-02-21T20:35:40.883Z,86.00
2019-02-21T20:39:42.791Z,85.70
2019-02-21T20:43:44.697Z,85.80
2019-02-21T20:47:46.614Z,86.00
2019-02-21T20:51:48.496Z,86.40
2019-02-21T20:55:50.415Z,86.00
2019-02-21T20:59:52.316Z,86.70
2019-02-21T21:03:54.248Z,87.20
2019-02-21T21:07:56.158Z,86.80
2019-02-21T21:11:58.113Z,87.30
2019-02-21T21:16:00.022Z,87.20
2019-02-21T21:20:01.934Z,87.20
2019-02-21T21:24:05.437Z,87.50
2019-02-21T21:28:07.457Z,87.50
2019-02-21T21:32:10.242Z,87.50
2019-02-21T21:36:12.132Z,87.40
2019-02-21T21:40:17.074Z,87.10
2019-02-21T21:44:18.991Z,87.00
2019-02-21T21:48:20.906Z,86.70
2019-02-21T21:52:22.894Z,86.80
2019-02-21T21:56:24.791Z,87.00
2019-02-21T22:00:26.956Z,87.20
2019-02-21T22:04:28.848Z,87.00
2019-02-21T22:08:30.779Z,87.30
2019-02-21T22:12:32.801Z,87.30
2019-02-21T22:16:34.707Z,87.50
2019-02-21T22:20:37.377Z,87.60
2019-02-21T22:24:39.269Z,87.50
2019-02-21T22:28:41.206Z,87.50
2019-02-21T22:32:43.108Z,87.50
2019-02-21T22:36:45.015Z,87.90
2019-02-21T22:40:46.977Z,87.90
2019-02-21T22:44:48.861Z,88.00
2019-02-21T22:48:50.804Z,88.20
2019-02-21T22:52:52.691Z,88.20
2019-02-21T22:56:54.805Z,88.80
2019-02-21T23:01:01.669Z,89.00
2019-02-21T23:05:23.571Z,89.30
2019-02-21T23:09:28.222Z,89.60
2019-02-21T23:13:30.294Z,89.70
2019-02-21T23:17:32.190Z,89.50
2019-02-21T23:21:34.180Z,89.50
2019-02-21T23:25:36.092Z,89.20
2019-02-21T23:29:38.196Z,88.90
2019-02-21T23:33:41.727Z,89.00
2019-02-21T23:37:43.624Z,89.00
2019-02-21T23:41:45.561Z,89.30
2019-02-21T23:45:47.451Z,89.00
2019-02-21T23:49:49.364Z,88.90
2019-02-21T23:53:51.308Z,88.70
2019-02-21T23:57:53.605Z,88.90
